Time,TemperatureF,DewpointF,PressureIn,WindDirection,WindDirectionDegrees,WindSpeedMPH,WindSpeedGustMPH,Humidity,HourlyPrecipIn,Conditions,Clouds,dailyrainin,SoftwareType,DateUTC
2013-07-31 05:52:00,66.0,61.0,30.09,SSE,157,0.0,0.0,85,0.00,,,0.00,,2013-07-31 09:52:00,
2013-07-31 06:12:00,66.0,61.0,30.08,SSE,157,0.0,0.0,85,0.00,,,0.00,,2013-07-31 10:12:00,
2013-07-31 06:22:00,66.0,61.0,30.08,SSE,157,0.0,0.0,85,0.02,,,0.02,,2013-07-31 10:22:00,
2013-07-31 06:32:00,65.0,61.0,30.09,SSE,157,0.0,0.0,86,0.02,,,0.02,,2013-07-31 10:32:00,
2013-07-31 06:44:00,65.0,61.0,30.09,SSE,157,0.0,0.0,86,0.02,,,0.02,,2013-07-31 10:44:00,
2013-07-31 06:52:00,65.0,61.0,30.09,SSE,157,0.0,0.0,86,0.02,,,0.02,,2013-07-31 10:52:00,
2013-07-31 07:52:00,65.0,61.0,30.08,South,180,0.0,0.0,87,0.02,,,0.04,,2013-07-31 11:52:00,
2013-07-31 08:02:00,65.0,61.0,30.08,SW,225,0.0,0.0,87,0.02,,,0.04,,2013-07-31 12:02:00,
2013-07-31 08:12:00,65.0,61.0,30.08,South,180,0.0,0.0,88,0.02,,,0.04,,2013-07-31 12:12:00,
2013-07-31 08:22:00,65.0,61.0,30.08,SW,225,0.0,0.0,88,0.02,,,0.04,,2013-07-31 12:22:00,
2013-07-31 08:33:00,65.0,61.0,30.08,SSE,157,0.0,3.0,88,0.04,,,0.06,,2013-07-31 12:33:00,
2013-07-31 08:43:00,65.0,61.0,30.08,South,180,0.0,0.0,88,0.04,,,0.06,,2013-07-31 12:43:00,
2013-07-31 08:52:00,65.0,62.0,30.08,East,90,0.0,0.0,89,0.02,,,0.06,,2013-07-31 12:52:00,
2013-07-31 09:12:00,65.0,62.0,30.08,SSW,202,0.0,0.0,89,0.02,,,0.06,,2013-07-31 13:12:00,
2013-07-31 09:22:00,65.0,62.0,30.08,South,180,0.0,0.0,89,0.04,,,0.08,,2013-07-31 13:22:00,
2013-07-31 09:33:00,65.0,62.0,30.08,South,180,2.0,2.0,90,0.02,,,0.08,,2013-07-31 13:33:00,
2013-07-31 10:43:00,65.0,62.0,30.07,SE,135,0.0,0.0,90,0.02,,,0.10,,2013-07-31 14:43:00,
2013-07-31 10:53:00,66.0,63.0,30.07,SW,225,0.0,1.0,90,0.04,,,0.12,,2013-07-31 14:53:00,
2013-07-31 11:12:00,66.0,63.0,30.07,SSW,202,0.0,0.0,90,0.04,,,0.12,,2013-07-31 15:12:00,
2013-07-31 11:22:00,65.0,62.0,30.07,SW,225,0.0,0.0,90,0.02,,,0.12,,2013-07-31 15:22:00,
2013-07-31 11:33:00,65.0,62.0,30.07,SW,225,0.0,0.0,90,0.02,,,0.12,,2013-07-31 15:33:00,
2013-07-31 11:43:00,64.0,61.0,30.07,SE,135,0.0,0.0,90,0.04,,,0.14,,2013-07-31 15:43:00,
2013-07-31 11:52:00,64.0,61.0,30.07,SE,135,0.0,0.0,90,0.02,,,0.14,,2013-07-31 15:52:00,
2013-07-31 12:02:00,63.0,60.0,30.06,SSW,202,0.0,0.0,90,0.02,,,0.14,,2013-07-31 16:02:00,
2013-07-31 12:12:00,63.0,60.0,30.06,SW,225,0.0,0.0,91,0.02,,,0.14,,2013-07-31 16:12:00,
2013-07-31 12:22:00,62.0,59.0,30.06,SSW,202,0.0,0.0,91,0.04,,,0.16,,2013-07-31 16:22:00,
2013-07-31 12:33:00,62.0,59.0,30.05,WNW,292,0.0,0.0,91,0.04,,,0.16,,2013-07-31 16:33:00,
2013-07-31 13:13:00,61.0,58.0,30.05,West,270,0.0,0.0,91,0.02,,,0.16,,2013-07-31 17:13:00,
2013-07-31 15:43:00,64.0,61.0,30.02,WSW,247,0.0,0.0,91,0.00,,,0.16,,2013-07-31 19:43:00,
2013-07-31 15:52:00,64.0,61.0,30.01,WSW,247,0.0,0.0,91,0.00,,,0.16,,2013-07-31 19:52:00,
2013-07-31 16:22:00,66.0,63.0,30.02,SW,225,0.0,0.0,90,0.00,,,0.16,,2013-07-31 20:22:00,
2013-07-31 16:32:00,67.0,64.0,30.02,SW,225,0.0,0.0,90,0.00,,,0.16,,2013-07-31 20:32:00,
2013-07-31 16:43:00,67.0,64.0,30.01,NW,315,0.0,0.0,90,0.00,,,0.16,,2013-07-31 20:43:00,
2013-07-31 17:02:00,68.0,65.0,30.01,WSW,247,0.0,0.0,90,0.00,,,0.16,,2013-07-31 21:02:00,
2013-07-31 17:13:00,69.0,66.0,30.00,SW,225,0.0,0.0,90,0.00,,,0.16,,2013-07-31 21:13:00,
2013-07-31 17:32:00,70.0,67.0,30.00,SW,225,0.0,0.0,90,0.00,,,0.16,,2013-07-31 21:32:00,
2013-07-31 18:13:00,70.0,67.0,29.99,WSW,247,0.0,0.0,90,0.00,,,0.16,,2013-07-31 22:13:00,
2013-07-31 18:22:00,71.0,68.0,29.99,WSW,247,0.0,0.0,90,0.00,,,0.16,,2013-07-31 22:22:00,
2013-07-31 18:33:00,71.0,68.0,29.98,North,-999,-999.0,-999.0,90,0.00,,,0.16,,2013-07-31 22:33:00,
2013-07-31 18:43:00,71.0,68.0,29.98,North,-999,-999.0,-999.0,90,0.00,,,0.16,,2013-07-31 22:43:00,
2013-07-31 18:53:00,71.0,68.0,29.98,North,-999,-999.0,-999.0,90,0.00,,,0.16,,2013-07-31 22:53:00,
2013-07-31 19:02:00,71.0,68.0,29.98,North,-999,-999.0,-999.0,90,0.00,,,0.16,,2013-07-31 23:02:00,